Peoria, Arizona
Current Conditions -  °F | °C
As of 11:53 PM on Saturday 25 Oct 2014 (Local Time) from KDVT Reporting Station
Clear Clear  
Wind Chill: 74°   Ceiling: Unl
Heat Index: 74°   Visibility: 10mi
Dew Point: 49°   Wind: 0mph
Humidity: 41%   Direction: NA
Pressure: 29.92"   Gusts: NA
Location:  33.58°N, 112.24°W
Report Text: KDVT 260653Z AUTO 00000KT 10SM CLR 23/09 A2992 RMK AO2 SLP107 T02330094 403330194
Loading
Personal Weather Stations






























Interactive Weather Map
Tropical Storm Tracking
New forecast layout! Learn more

10-Day Weather Forecast

Advertisements
Track Severe Weather on mobile